Time;durP1;ratioP1;P1;durP2;ratioP2;P2;SDS_P1;SDS_P2;PMS_P1;PMS_P2;Temp;Humidity;BMP_temperature;BMP_pressure;BME280_temperature;BME280_humidity;BME280_pressure;Samples;Min_cycle;Max_cycle;Signal;HPM_P1;HPM_P2
2021/03/22 00:01:16;;;;;;;24.88;6.00;;;4.50;92.10;;;;;;5108608;28;20043;-48
2021/03/22 00:03:43;;;;;;;27.10;5.55;;;4.60;92.50;;;;;;5112270;28;20043;-43
2021/03/22 00:06:14;;;;;;;34.97;7.18;;;4.60;92.20;;;;;;5116946;28;20728;-44
2021/03/22 00:08:42;;;;;;;19.58;5.88;;;4.60;92.20;;;;;;5118190;27;20053;-45
2021/03/22 00:11:16;;;;;;;22.50;5.35;;;4.60;92.30;;;;;;5117291;28;20687;-45
2021/03/22 00:13:46;;;;;;;23.20;6.22;;;4.60;92.20;;;;;;5113998;27;20039;-48
2021/03/22 00:16:19;;;;;;;25.52;5.28;;;4.70;92.40;;;;;;5122549;27;20499;-48
2021/03/22 00:18:51;;;;;;;28.77;5.88;;;4.70;92.20;;;;;;5118501;27;20047;-46
2021/03/22 00:21:23;;;;;;;23.20;5.60;;;4.70;92.30;;;;;;5116408;27;20047;-45
2021/03/22 00:23:54;;;;;;;29.65;6.82;;;4.70;92.30;;;;;;5112531;27;20051;-47
2021/03/22 00:26:22;;;;;;;28.60;6.45;;;4.70;92.40;;;;;;5121916;27;20047;-47
2021/03/22 00:28:55;;;;;;;31.58;7.22;;;4.70;92.30;;;;;;5123610;27;20055;-46
2021/03/22 00:31:21;;;;;;;24.58;6.88;;;4.70;92.50;;;;;;5116928;27;20457;-45
2021/03/22 00:33:49;;;;;;;25.77;6.68;;;4.70;92.30;;;;;;5119283;27;20058;-46
2021/03/22 00:36:15;;;;;;;22.25;6.88;;;4.80;92.50;;;;;;5114611;27;20039;-45
2021/03/22 00:38:46;;;;;;;22.63;6.43;;;4.80;92.60;;;;;;5118764;27;20043;-45
2021/03/22 00:41:18;;;;;;;23.70;6.50;;;4.80;92.50;;;;;;5125879;27;20043;-45
2021/03/22 00:43:44;;;;;;;28.00;7.68;;;4.80;92.50;;;;;;5123815;27;20195;-45
2021/03/22 00:46:15;;;;;;;28.63;7.38;;;4.70;92.50;;;;;;5115319;27;20048;-44
2021/03/22 00:48:46;;;;;;;28.35;7.25;;;4.70;92.70;;;;;;5119071;27;20067;-46
2021/03/22 00:51:21;;;;;;;30.95;8.18;;;4.70;92.70;;;;;;5115895;27;20114;-43
2021/03/22 00:53:55;;;;;;;25.15;7.88;;;4.60;92.80;;;;;;5113308;27;20063;-43
2021/03/22 00:56:20;;;;;;;19.90;6.32;;;4.60;92.90;;;;;;5123620;27;20059;-43
2021/03/22 00:58:49;;;;;;;34.97;7.60;;;4.60;93.10;;;;;;5118622;27;20263;-45
2021/03/22 01:01:21;;;;;;;35.13;7.15;;;4.50;93.00;;;;;;5113888;27;20050;-44
2021/03/22 01:03:49;;;;;;;35.83;8.23;;;4.50;93.10;;;;;;5123967;27;20114;-44
2021/03/22 01:06:23;;;;;;;29.20;6.93;;;4.60;93.30;;;;;;5122656;27;20452;-44
2021/03/22 01:08:53;;;;;;;36.97;8.82;;;4.60;93.30;;;;;;5123145;27;20056;-43
2021/03/22 01:11:23;;;;;;;21.77;7.50;;;4.60;93.40;;;;;;5115659;27;20446;-43
2021/03/22 01:13:53;;;;;;;27.67;7.70;;;4.70;93.40;;;;;;5117326;27;20055;-44
2021/03/22 01:16:26;;;;;;;31.27;7.55;;;4.70;93.10;;;;;;5115314;27;20130;-44
2021/03/22 01:18:59;;;;;;;25.17;8.32;;;4.70;93.00;;;;;;5115677;27;20158;-43
2021/03/22 01:21:33;;;;;;;37.03;8.45;;;4.80;93.20;;;;;;5116500;27;20495;-44
2021/03/22 01:24:02;;;;;;;24.00;8.25;;;4.80;93.20;;;;;;5124373;27;20119;-44
2021/03/22 01:26:36;;;;;;;26.77;8.02;;;4.80;93.00;;;;;;5113481;27;20183;-46
2021/03/22 01:29:13;;;;;;;24.67;6.82;;;4.80;92.90;;;;;;5112954;27;20047;-44
2021/03/22 01:31:42;;;;;;;34.42;8.07;;;4.90;93.10;;;;;;5120293;27;20808;-44
2021/03/22 01:34:11;;;;;;;28.10;8.52;;;4.90;93.10;;;;;;5116542;27;20071;-46
2021/03/22 01:36:39;;;;;;;31.05;9.18;;;4.90;93.10;;;;;;5116025;27;20067;-43
2021/03/22 01:39:13;;;;;;;27.85;8.15;;;5.00;93.10;;;;;;5119860;27;20035;-45
2021/03/22 01:42:10;;;;;;;35.05;10.00;;;5.00;93.00;;;;;;5116186;27;20082;-44
2021/03/22 01:44:51;;;;;;;28.00;8.65;;;5.00;93.20;;;;;;5109303;27;20047;-44
2021/03/22 01:47:25;;;;;;;30.08;10.20;;;5.00;93.10;;;;;;5117088;27;20092;-45
2021/03/22 01:50:17;;;;;;;35.40;8.20;;;5.00;93.00;;;;;;5121590;27;20479;-44
2021/03/22 01:52:45;;;;;;;28.98;8.50;;;5.10;92.90;;;;;;5123476;27;20054;-44
2021/03/22 01:55:12;;;;;;;30.73;9.38;;;5.10;93.00;;;;;;5113424;27;20051;-45
2021/03/22 01:57:47;;;;;;;38.13;9.65;;;5.10;92.90;;;;;;5112409;27;20048;-43
2021/03/22 02:00:17;;;;;;;28.23;8.30;;;5.20;92.80;;;;;;5124071;27;20068;-45
2021/03/22 02:02:46;;;;;;;25.98;8.63;;;5.20;92.70;;;;;;5108790;27;20035;-44
2021/03/22 02:05:21;;;;;;;30.83;9.65;;;5.20;92.60;;;;;;5112458;27;20177;-45
2021/03/22 02:07:56;;;;;;;23.20;8.50;;;5.30;92.70;;;;;;5122245;27;20071;-43
2021/03/22 02:10:32;;;;;;;28.05;8.88;;;5.30;92.50;;;;;;5112641;27;20066;-46
2021/03/22 02:13:04;;;;;;;25.05;9.48;;;5.30;92.50;;;;;;5116360;27;20046;-44
2021/03/22 02:15:35;;;;;;;24.05;9.10;;;5.30;92.30;;;;;;5113836;27;20106;-46
2021/03/22 02:18:40;;;;;;;25.13;8.88;;;5.30;92.30;;;;;;5118155;27;20093;-44
2021/03/22 02:21:34;;;;;;;35.47;8.82;;;5.30;92.30;;;;;;5045339;28;20060;-44
2021/03/22 02:24:24;;;;;;;23.50;8.13;;;5.40;92.10;;;;;;5043600;28;20432;-44
2021/03/22 02:27:07;;;;;;;24.33;7.80;;;5.30;92.10;;;;;;5041751;28;20057;-46
2021/03/22 02:29:54;;;;;;;36.38;8.55;;;5.40;92.20;;;;;;5042288;28;20192;-44
2021/03/22 02:32:47;;;;;;;20.60;7.90;;;5.40;92.00;;;;;;5042712;28;20052;-45
2021/03/22 02:35:25;;;;;;;25.00;8.38;;;5.40;92.10;;;;;;5044631;28;20139;-46
2021/03/22 02:38:05;;;;;;;25.75;8.35;;;5.40;92.00;;;;;;5042688;28;20055;-46
2021/03/22 02:40:43;;;;;;;28.90;7.50;;;5.40;92.00;;;;;;5045530;28;20053;-46
2021/03/22 02:43:12;;;;;;;27.00;8.23;;;5.40;91.90;;;;;;5043825;28;20049;-47
2021/03/22 02:45:43;;;;;;;21.63;7.35;;;5.40;92.10;;;;;;5044911;28;20060;-44
2021/03/22 02:48:19;;;;;;;21.85;8.40;;;5.40;92.20;;;;;;5039266;28;20044;-44
2021/03/22 02:50:56;;;;;;;29.65;9.07;;;5.40;92.00;;;;;;5047784;28;20061;-45
2021/03/22 02:53:44;;;;;;;28.30;7.40;;;5.40;92.00;;;;;;5043344;28;20171;-46
2021/03/22 02:56:26;;;;;;;26.02;7.68;;;5.40;92.10;;;;;;5043800;28;20059;-47
2021/03/22 02:59:20;;;;;;;30.38;8.30;;;5.40;92.10;;;;;;5121172;27;20480;-45
2021/03/22 03:02:01;;;;;;;24.35;7.20;;;5.40;92.30;;;;;;5117906;27;20570;-44
2021/03/22 03:04:31;;;;;;;28.10;7.67;;;5.30;92.30;;;;;;5117719;27;20067;-46
2021/03/22 03:07:05;;;;;;;20.92;7.90;;;5.40;92.40;;;;;;5115968;27;20519;-45
2021/03/22 03:09:35;;;;;;;32.42;7.75;;;5.30;92.40;;;;;;5111750;27;20087;-46
2021/03/22 03:12:21;;;;;;;22.88;7.10;;;5.30;92.40;;;;;;5108727;27;20043;-45
2021/03/22 03:14:55;;;;;;;24.35;8.23;;;5.30;92.50;;;;;;5117529;27;20051;-45
2021/03/22 03:17:22;;;;;;;21.52;5.97;;;5.30;92.40;;;;;;5116952;27;20130;-47
2021/03/22 03:19:56;;;;;;;17.33;5.97;;;5.30;92.50;;;;;;5116511;27;20567;-45
2021/03/22 03:22:31;;;;;;;18.13;5.60;;;5.30;92.40;;;;;;5116251;27;20160;-44
2021/03/22 03:24:59;;;;;;;20.60;6.20;;;5.30;92.20;;;;;;5116190;27;20103;-44
2021/03/22 03:27:25;;;;;;;20.13;5.57;;;5.30;92.20;;;;;;5113370;27;20039;-46
2021/03/22 03:29:53;;;;;;;16.20;4.70;;;5.30;92.20;;;;;;5120358;27;20081;-45
2021/03/22 03:32:25;;;;;;;22.67;5.60;;;5.30;92.20;;;;;;5121512;27;20072;-46
2021/03/22 03:34:54;;;;;;;24.52;6.70;;;5.30;92.20;;;;;;5115550;27;20078;-46
2021/03/22 03:37:24;;;;;;;32.77;6.73;;;5.30;92.30;;;;;;5116699;28;20502;-45
2021/03/22 03:39:53;;;;;;;20.67;6.88;;;5.30;92.70;;;;;;5113861;28;20067;-47
2021/03/22 03:42:19;;;;;;;18.52;5.63;;;5.30;93.00;;;;;;5121187;28;20460;-45
2021/03/22 03:44:48;;;;;;;20.05;6.22;;;5.20;93.10;;;;;;5108250;28;20048;-45
2021/03/22 03:47:22;;;;;;;20.63;5.23;;;5.20;93.30;;;;;;5121426;28;20055;-45
2021/03/22 03:49:53;;;;;;;20.73;5.28;;;5.20;93.30;;;;;;5116464;27;20063;-45
2021/03/22 03:52:21;;;;;;;25.98;6.00;;;5.20;93.20;;;;;;5123997;27;20057;-44
2021/03/22 03:54:50;;;;;;;24.77;5.68;;;5.20;93.10;;;;;;5118991;27;20047;-45
2021/03/22 03:57:24;;;;;;;20.67;5.18;;;5.20;93.00;;;;;;5118128;27;20061;-45
2021/03/22 03:59:53;;;;;;;22.15;5.43;;;5.20;93.00;;;;;;5122337;27;20051;-46
2021/03/22 04:02:19;;;;;;;15.65;4.78;;;5.20;93.20;;;;;;5125437;27;20051;-44
2021/03/22 04:04:45;;;;;;;20.63;4.38;;;5.20;93.10;;;;;;5121114;27;20051;-46
2021/03/22 04:07:11;;;;;;;17.75;4.90;;;5.20;93.00;;;;;;5121157;27;20543;-47
2021/03/22 04:09:40;;;;;;;20.33;4.93;;;5.20;92.90;;;;;;5115423;27;20044;-46
2021/03/22 04:12:11;;;;;;;19.92;4.78;;;5.20;93.10;;;;;;5117524;27;20036;-44
2021/03/22 04:14:49;;;;;;;18.17;4.05;;;5.20;92.80;;;;;;5122128;27;20043;-46
2021/03/22 04:17:17;;;;;;;13.85;3.25;;;5.20;92.70;;;;;;5116520;27;20796;-45
2021/03/22 04:19:50;;;;;;;14.98;3.15;;;5.20;92.80;;;;;;5119232;27;20120;-44
2021/03/22 04:22:19;;;;;;;9.90;3.37;;;5.20;92.60;;;;;;5118378;27;20054;-46
2021/03/22 04:24:51;;;;;;;13.23;3.38;;;5.20;92.50;;;;;;5123290;27;20787;-46
2021/03/22 04:27:21;;;;;;;12.68;2.90;;;5.20;92.50;;;;;;5114475;27;20047;-45
2021/03/22 04:29:47;;;;;;;14.55;3.42;;;5.20;92.40;;;;;;5113145;27;20127;-46
2021/03/22 04:32:15;;;;;;;10.82;2.42;;;5.20;92.40;;;;;;5119232;27;20206;-45
2021/03/22 04:34:41;;;;;;;13.65;2.90;;;5.20;92.40;;;;;;5116052;27;20059;-46
2021/03/22 04:37:10;;;;;;;18.70;3.35;;;5.10;92.40;;;;;;5114031;27;20075;-47
2021/03/22 04:39:43;;;;;;;15.75;3.30;;;5.10;92.40;;;;;;5118423;27;20055;-47
2021/03/22 04:42:11;;;;;;;10.15;3.30;;;5.10;92.40;;;;;;5116148;27;20081;-45
2021/03/22 04:44:40;;;;;;;14.18;3.03;;;5.10;92.40;;;;;;5119959;27;20052;-46
2021/03/22 04:47:09;;;;;;;10.80;2.90;;;5.10;92.60;;;;;;5114984;27;20107;-45
2021/03/22 04:49:35;;;;;;;13.07;3.25;;;5.10;92.70;;;;;;5120285;27;20050;-45
2021/03/22 04:52:09;;;;;;;13.02;3.45;;;5.10;92.70;;;;;;5117927;27;20138;-46
2021/03/22 04:54:37;;;;;;;16.65;3.75;;;5.10;92.80;;;;;;5118803;27;20050;-47
2021/03/22 04:57:26;;;;;;;14.80;3.22;;;5.10;92.60;;;;;;5120221;27;20044;-44
2021/03/22 04:59:53;;;;;;;15.35;4.05;;;5.00;92.70;;;;;;5110320;27;20392;-46
2021/03/22 05:02:22;;;;;;;14.48;3.00;;;5.10;92.60;;;;;;5116463;27;20934;-47
2021/03/22 05:04:48;;;;;;;12.88;2.72;;;5.10;92.60;;;;;;5118448;27;20070;-45
2021/03/22 05:07:19;;;;;;;16.15;3.20;;;5.10;92.70;;;;;;5122519;27;20555;-44
2021/03/22 05:09:48;;;;;;;17.88;3.75;;;5.10;92.70;;;;;;5118604;27;20048;-46
2021/03/22 05:12:19;;;;;;;9.98;2.17;;;5.10;92.90;;;;;;5118325;27;20514;-46
2021/03/22 05:14:50;;;;;;;16.17;2.67;;;5.00;92.70;;;;;;5120591;27;20141;-45
2021/03/22 05:17:25;;;;;;;11.82;3.03;;;5.00;92.90;;;;;;5125549;27;20039;-44
2021/03/22 05:19:56;;;;;;;13.75;3.20;;;5.00;93.00;;;;;;5122680;27;20496;-46
2021/03/22 05:22:22;;;;;;;13.43;3.13;;;5.00;93.20;;;;;;5117563;27;20047;-45
2021/03/22 05:24:51;;;;;;;15.82;3.53;;;5.00;93.30;;;;;;5117450;27;20407;-45
2021/03/22 05:27:28;;;;;;;17.23;3.50;;;5.00;93.40;;;;;;5112464;27;20072;-45
2021/03/22 05:29:57;;;;;;;16.45;3.38;;;5.00;93.40;;;;;;5115709;27;20048;-44
2021/03/22 05:32:32;;;;;;;17.05;3.17;;;5.00;93.50;;;;;;5114794;27;20050;-45
2021/03/22 05:35:07;;;;;;;19.48;3.67;;;5.00;93.60;;;;;;5111095;27;20491;-46
2021/03/22 05:37:33;;;;;;;19.23;3.72;;;5.00;93.90;;;;;;5117616;27;20051;-45
2021/03/22 05:40:04;;;;;;;16.80;3.92;;;5.00;93.90;;;;;;5116243;27;20095;-46
2021/03/22 05:42:46;;;;;;;15.45;3.70;;;5.00;93.90;;;;;;5114123;27;20043;-45
2021/03/22 05:45:34;;;;;;;20.83;3.95;;;5.00;94.30;;;;;;5090377;28;20044;-44
2021/03/22 05:48:37;;;;;;;15.50;3.33;;;4.90;94.00;;;;;;5097669;28;20048;-47
2021/03/22 05:51:28;;;;;;;15.15;3.22;;;5.00;94.30;;;;;;5088524;28;20067;-50
2021/03/22 05:54:05;;;;;;;17.58;3.05;;;5.10;94.00;;;;;;5101697;28;20054;-47
2021/03/22 05:56:50;;;;;;;13.73;3.83;;;5.10;93.80;;;;;;5097401;28;20122;-51
2021/03/22 05:59:44;;;;;;;15.85;3.22;;;5.10;93.70;;;;;;5089657;28;20075;-48
2021/03/22 06:02:39;;;;;;;10.35;3.55;;;5.20;94.00;;;;;;5093374;28;20555;-47
2021/03/22 06:05:28;;;;;;;12.45;3.63;;;5.20;93.60;;;;;;5080095;28;20121;-48
2021/03/22 06:08:05;;;;;;;16.70;4.03;;;5.20;93.60;;;;;;5086598;28;20056;-46
2021/03/22 06:10:44;;;;;;;28.25;14.18;;;5.20;93.50;;;;;;5095120;28;20126;-60
2021/03/22 06:13:10;;;;;;;18.85;7.35;;;5.20;93.60;;;;;;5091360;28;20051;-60
2021/03/22 06:15:48;;;;;;;13.23;4.03;;;5.20;93.50;;;;;;5095914;28;20496;-60
2021/03/22 06:18:53;;;;;;;16.23;3.65;;;5.20;93.50;;;;;;5079386;28;20044;-60
2021/03/22 06:21:25;;;;;;;15.18;3.10;;;5.20;93.60;;;;;;5091029;27;20047;-59
2021/03/22 06:23:58;;;;;;;16.23;6.78;;;5.20;93.60;;;;;;5091781;28;20075;-59
2021/03/22 06:26:40;;;;;;;24.98;11.68;;;5.30;93.70;;;;;;5069930;28;20124;-60
2021/03/22 06:29:18;;;;;;;13.07;4.38;;;5.40;93.50;;;;;;5089780;28;20056;-60
2021/03/22 06:31:45;;;;;;;16.48;5.10;;;5.40;93.30;;;;;;5092038;28;20048;-60
2021/03/22 06:34:24;;;;;;;10.45;2.97;;;5.40;93.30;;;;;;5087676;28;20048;-60
2021/03/22 06:36:57;;;;;;;12.75;3.15;;;5.40;93.40;;;;;;5105024;28;20125;-59
2021/03/22 06:39:28;;;;;;;12.25;2.78;;;5.40;93.30;;;;;;5088016;28;20040;-59
2021/03/22 06:41:57;;;;;;;10.90;4.25;;;5.50;93.30;;;;;;5106833;28;20048;-60
2021/03/22 06:44:39;;;;;;;15.90;5.90;;;5.50;93.20;;;;;;5108734;27;20047;-60
2021/03/22 06:47:23;;;;;;;12.70;3.45;;;5.50;93.30;;;;;;5110527;27;20050;-60
2021/03/22 06:50:15;;;;;;;14.45;3.47;;;5.60;93.40;;;;;;5109408;27;20063;-60
2021/03/22 06:52:43;;;;;;;10.80;3.00;;;5.60;93.30;;;;;;5100541;27;20592;-60
2021/03/22 06:55:40;;;;;;;13.15;4.32;;;5.60;93.20;;;;;;5118449;27;20510;-50
2021/03/22 06:58:06;;;;;;;10.13;2.90;;;5.70;93.10;;;;;;5114705;27;20040;-46
2021/03/22 07:00:34;;;;;;;63.20;48.70;;;5.70;93.10;;;;;;5122124;27;20819;-47
2021/03/22 07:03:22;;;;;;;12.13;3.90;;;5.80;92.90;;;;;;5100699;28;20825;-46
2021/03/22 07:05:51;;;;;;;14.48;3.58;;;5.90;92.60;;;;;;5114300;27;20081;-52
2021/03/22 07:08:42;;;;;;;9.35;3.30;;;5.80;92.90;;;;;;5112677;27;20549;-56
2021/03/22 07:11:22;;;;;;;12.73;4.05;;;5.90;92.90;;;;;;5108621;27;20419;-50
2021/03/22 07:14:01;;;;;;;26.77;12.43;;;5.90;92.90;;;;;;5116174;27;20062;-45
2021/03/22 07:16:33;;;;;;;32.42;18.60;;;6.10;93.20;;;;;;5119290;27;20043;-45
2021/03/22 07:19:14;;;;;;;51.47;30.90;;;6.30;92.90;;;;;;5119149;27;20059;-44
2021/03/22 07:21:56;;;;;;;13.00;5.53;;;6.40;92.40;;;;;;5117461;27;20066;-42
2021/03/22 07:24:49;;;;;;;11.40;3.55;;;6.30;92.40;;;;;;5108747;27;20126;-48
2021/03/22 07:27:25;;;;;;;14.55;4.05;;;6.30;92.50;;;;;;5114889;27;20063;-47
2021/03/22 07:30:12;;;;;;;11.93;4.22;;;6.30;92.50;;;;;;5104989;28;20048;-46
2021/03/22 07:32:39;;;;;;;17.70;8.98;;;6.30;92.80;;;;;;5094035;28;20055;-46
2021/03/22 07:35:30;;;;;;;20.58;9.43;;;6.20;92.80;;;;;;5088403;28;20055;-47
2021/03/22 07:38:25;;;;;;;10.00;3.70;;;6.30;92.90;;;;;;5112935;28;20047;-46
2021/03/22 07:41:37;;;;;;;8.98;4.45;;;6.20;92.90;;;;;;5111139;28;20047;-48
2021/03/22 07:44:20;;;;;;;11.77;5.53;;;6.20;92.80;;;;;;4980673;28;20062;-45
2021/03/22 07:47:28;;;;;;;9.43;4.07;;;6.20;92.90;;;;;;4992028;28;20804;-49
2021/03/22 07:50:20;;;;;;;11.70;4.65;;;6.40;92.90;;;;;;4988655;28;20670;-45
2021/03/22 07:53:00;;;;;;;13.93;3.42;;;6.60;92.70;;;;;;4982582;28;20055;-45
2021/03/22 07:55:50;;;;;;;10.35;3.08;;;6.70;92.30;;;;;;4992982;28;20123;-46
2021/03/22 07:58:40;;;;;;;10.75;2.90;;;6.80;92.00;;;;;;4990897;28;20527;-50
2021/03/22 08:01:21;;;;;;;9.52;3.70;;;6.90;91.30;;;;;;4995603;28;20069;-46
2021/03/22 08:04:07;;;;;;;8.57;3.20;;;7.20;90.90;;;;;;4987575;28;20055;-47
2021/03/22 08:07:00;;;;;;;9.07;3.10;;;7.30;90.60;;;;;;4983777;28;20144;-46
2021/03/22 08:09:47;;;;;;;10.32;5.25;;;7.20;90.10;;;;;;4991384;28;20050;-47
2021/03/22 08:12:41;;;;;;;7.85;3.35;;;7.30;90.60;;;;;;4988100;28;20057;-47
2021/03/22 08:15:40;;;;;;;8.18;3.47;;;7.10;90.30;;;;;;4987720;28;20515;-50
2021/03/22 08:18:21;;;;;;;11.32;2.83;;;7.00;90.60;;;;;;4985550;28;20042;-49
2021/03/22 08:21:01;;;;;;;15.23;4.15;;;6.80;91.00;;;;;;5026738;28;20083;-47
2021/03/22 08:23:42;;;;;;;9.88;2.70;;;6.80;91.40;;;;;;5056528;28;20045;-47
2021/03/22 08:26:25;;;;;;;10.93;3.45;;;6.70;91.60;;;;;;5047341;28;20126;-45
2021/03/22 08:29:24;;;;;;;11.43;3.53;;;6.80;91.90;;;;;;5058137;28;20045;-46
2021/03/22 08:32:33;;;;;;;8.77;3.95;;;6.80;91.60;;;;;;5046110;28;20045;-48
2021/03/22 08:35:34;;;;;;;10.90;3.80;;;6.90;91.60;;;;;;5062476;28;20037;-47
2021/03/22 08:38:16;;;;;;;12.43;3.80;;;7.00;91.80;;;;;;5014712;28;20049;-52
2021/03/22 08:40:49;;;;;;;11.48;6.13;;;7.20;91.60;;;;;;5021817;28;20042;-47
2021/03/22 08:43:40;;;;;;;13.10;5.80;;;7.40;91.10;;;;;;5009342;28;20045;-49
2021/03/22 08:46:44;;;;;;;13.13;5.70;;;8.10;90.70;;;;;;4993436;28;20068;-46
2021/03/22 08:49:56;;;;;;;10.10;4.00;;;9.60;89.20;;;;;;5002359;28;20588;-50
2021/03/22 08:52:39;;;;;;;10.75;3.78;;;11.00;80.50;;;;;;4920818;29;20075;-47
2021/03/22 08:55:12;;;;;;;7.35;2.45;;;10.90;78.60;;;;;;4923879;29;20051;-50
2021/03/22 08:57:59;;;;;;;7.65;2.45;;;11.10;76.10;;;;;;4923859;29;20580;-48
2021/03/22 09:00:33;;;;;;;7.25;2.53;;;11.30;80.70;;;;;;4925231;29;20142;-51
2021/03/22 09:03:33;;;;;;;6.13;1.90;;;11.00;77.10;;;;;;4919854;29;20060;-48
2021/03/22 09:06:12;;;;;;;7.38;2.13;;;10.60;75.10;;;;;;4929041;29;20047;-49
2021/03/22 09:09:11;;;;;;;5.40;1.70;;;10.20;79.30;;;;;;4921897;29;20157;-46
2021/03/22 09:11:48;;;;;;;6.78;1.85;;;9.50;77.00;;;;;;4913974;29;20461;-49
2021/03/22 09:14:16;;;;;;;6.40;1.25;;;9.20;79.70;;;;;;4934917;28;20051;-51
2021/03/22 09:16:49;;;;;;;8.27;2.42;;;8.90;79.90;;;;;;4954110;28;20051;-49
2021/03/22 09:19:15;;;;;;;6.35;2.03;;;8.60;79.50;;;;;;4950354;28;20047;-52
2021/03/22 09:22:01;;;;;;;2.83;1.02;;;8.40;80.80;;;;;;4944547;28;20639;-47
2021/03/22 09:24:48;;;;;;;5.95;1.60;;;8.10;79.90;;;;;;4953584;28;20050;-46
2021/03/22 09:27:22;;;;;;;9.98;4.82;;;8.00;81.30;;;;;;4949028;28;20582;-49
2021/03/22 09:30:05;;;;;;;4.82;1.83;;;7.90;80.70;;;;;;5009802;28;20061;-48
2021/03/22 09:32:36;;;;;;;7.55;3.67;;;8.00;80.00;;;;;;5019195;28;20053;-48
2021/03/22 09:35:17;;;;;;;7.82;2.85;;;8.10;81.40;;;;;;5014134;28;20624;-39
2021/03/22 09:38:24;;;;;;;5.93;1.48;;;8.30;83.30;;;;;;5004559;28;20639;-39
2021/03/22 09:41:07;;;;;;;10.20;3.92;;;8.30;81.60;;;;;;5004271;28;20175;-39
2021/03/22 09:43:39;;;;;;;6.25;1.33;;;8.50;82.10;;;;;;5001796;28;20633;-40
2021/03/22 09:46:26;;;;;;;11.70;4.22;;;8.40;79.00;;;;;;5008153;28;20056;-39
2021/03/22 09:49:23;;;;;;;4.90;1.30;;;8.40;79.70;;;;;;5043765;28;20049;-39
2021/03/22 09:52:12;;;;;;;6.25;1.63;;;8.40;79.40;;;;;;5063693;28;20854;-48
2021/03/22 09:54:43;;;;;;;22.98;13.73;;;8.50;80.50;;;;;;5070082;28;20417;-48
2021/03/22 09:57:39;;;;;;;14.18;6.97;;;8.50;80.00;;;;;;5074680;28;20044;-44
2021/03/22 10:00:11;;;;;;;8.82;2.20;;;8.30;77.90;;;;;;4978268;28;20105;-44
2021/03/22 10:02:50;;;;;;;10.02;4.75;;;8.00;78.70;;;;;;4984936;28;20088;-45
2021/03/22 10:05:27;;;;;;;32.13;13.00;;;8.10;80.90;;;;;;4987742;28;20054;-47
2021/03/22 10:08:02;;;;;;;9.75;2.65;;;8.20;81.70;;;;;;4985617;28;20057;-46
2021/03/22 10:10:38;;;;;;;7.85;1.90;;;8.10;82.20;;;;;;4977749;28;20061;-45
2021/03/22 10:13:18;;;;;;;10.73;1.95;;;8.10;81.20;;;;;;4982220;28;20077;-44
2021/03/22 10:16:14;;;;;;;7.65;2.50;;;8.10;82.20;;;;;;4986976;28;20523;-47
2021/03/22 10:18:55;;;;;;;7.28;2.20;;;8.00;81.30;;;;;;5002975;28;20054;-47
2021/03/22 10:21:26;;;;;;;8.18;3.50;;;8.20;82.10;;;;;;4991481;28;20096;-47
2021/03/22 10:24:02;;;;;;;7.80;2.10;;;8.40;82.90;;;;;;4983023;28;20105;-47
2021/03/22 10:26:42;;;;;;;9.18;4.03;;;8.40;80.90;;;;;;4986159;28;20066;-45
2021/03/22 10:29:16;;;;;;;9.32;3.05;;;8.40;79.40;;;;;;4998463;28;20141;-46
2021/03/22 10:31:58;;;;;;;6.80;1.55;;;8.50;79.20;;;;;;4984208;28;20057;-44
2021/03/22 10:34:43;;;;;;;7.47;1.88;;;8.60;77.20;;;;;;4985355;28;20172;-45
2021/03/22 10:37:20;;;;;;;9.75;1.55;;;8.90;78.70;;;;;;5034030;28;20048;-46
2021/03/22 10:39:50;;;;;;;5.43;1.40;;;9.20;78.30;;;;;;5081969;28;20198;-46
2021/03/22 10:42:27;;;;;;;5.80;1.75;;;9.20;76.60;;;;;;5067213;28;20060;-45
2021/03/22 10:44:57;;;;;;;6.13;1.60;;;9.20;74.00;;;;;;5084951;28;20078;-45
2021/03/22 10:47:33;;;;;;;7.63;2.20;;;9.40;74.20;;;;;;5080621;28;20113;-45
2021/03/22 10:50:16;;;;;;;7.90;1.92;;;9.70;75.40;;;;;;5091307;28;20056;-47
2021/03/22 10:52:42;;;;;;;7.47;1.40;;;9.80;73.60;;;;;;5087502;28;20040;-45
2021/03/22 10:55:27;;;;;;;6.47;1.75;;;9.70;72.80;;;;;;5088952;28;20048;-47
2021/03/22 10:57:54;;;;;;;7.15;1.80;;;9.80;72.30;;;;;;5087571;28;20571;-44
2021/03/22 11:00:31;;;;;;;7.32;1.90;;;9.90;74.50;;;;;;5088779;28;20060;-45
2021/03/22 11:03:05;;;;;;;7.22;1.50;;;9.80;73.80;;;;;;5092126;28;20086;-44
2021/03/22 11:05:49;;;;;;;5.50;1.85;;;9.70;72.80;;;;;;5093771;28;20165;-48
2021/03/22 11:08:34;;;;;;;5.80;2.33;;;9.70;73.80;;;;;;5097382;28;20044;-47
2021/03/22 11:11:03;;;;;;;5.57;1.70;;;9.70;74.50;;;;;;5090973;28;20047;-45
2021/03/22 11:13:40;;;;;;;3.53;1.00;;;9.80;74.20;;;;;;5089071;28;20051;-45
2021/03/22 11:16:07;;;;;;;4.53;1.30;;;10.10;74.90;;;;;;5087953;28;20550;-45
2021/03/22 11:18:39;;;;;;;11.70;2.15;;;10.00;73.20;;;;;;5091920;28;20139;-45
2021/03/22 11:21:08;;;;;;;8.05;1.58;;;10.00;71.90;;;;;;5105172;28;20071;-46
2021/03/22 11:23:42;;;;;;;9.30;2.10;;;9.90;70.60;;;;;;5097559;28;20051;-46
2021/03/22 11:26:24;;;;;;;;;;;9.70;71.90;;;;;;5098776;28;20051;-44
2021/03/22 11:29:12;;;;;;;;;;;9.50;70.20;;;;;;5094476;28;20011;-47
2021/03/22 11:31:46;;;;;;;8.70;2.60;;;9.30;70.80;;;;;;5091395;28;19959;-47
2021/03/22 11:34:22;;;;;;;6.85;1.77;;;9.40;73.00;;;;;;5097764;28;20092;-46
2021/03/22 11:37:05;;;;;;;3.83;1.40;;;9.40;73.30;;;;;;5094267;28;20571;-46
2021/03/22 11:39:40;;;;;;;96.20;68.45;;;9.40;70.60;;;;;;5088365;28;20050;-46
2021/03/22 11:42:17;;;;;;;19.10;8.65;;;9.40;72.00;;;;;;5093976;28;20555;-47
2021/03/22 11:44:49;;;;;;;85.63;58.35;;;9.30;72.00;;;;;;5096307;28;20059;-44
2021/03/22 11:47:45;;;;;;;11.77;2.95;;;9.40;72.10;;;;;;5099490;28;20040;-44
2021/03/22 11:50:29;;;;;;;7.90;2.25;;;9.30;70.10;;;;;;5093291;28;20083;-46
2021/03/22 11:53:06;;;;;;;18.80;10.90;;;9.30;69.10;;;;;;5098984;28;20050;-47
2021/03/22 11:55:47;;;;;;;7.85;2.50;;;9.40;72.40;;;;;;5092380;28;20055;-46
2021/03/22 11:58:37;;;;;;;6.63;1.73;;;9.40;70.10;;;;;;5098055;28;20503;-47
2021/03/22 12:01:15;;;;;;;5.75;2.38;;;9.40;70.10;;;;;;5091789;28;20048;-47
2021/03/22 12:03:48;;;;;;;7.30;1.92;;;9.40;70.60;;;;;;5087930;28;20090;-47
2021/03/22 12:06:25;;;;;;;5.53;1.60;;;9.30;70.40;;;;;;5086904;28;20121;-46
2021/03/22 12:08:54;;;;;;;11.65;4.65;;;9.20;69.70;;;;;;5087748;28;20052;-50
2021/03/22 12:11:24;;;;;;;9.18;2.25;;;9.20;71.30;;;;;;5091872;28;20071;-46
2021/03/22 12:14:00;;;;;;;8.82;2.40;;;9.20;70.80;;;;;;5093358;28;20134;-46
2021/03/22 12:16:37;;;;;;;11.38;3.97;;;9.20;70.60;;;;;;5091411;28;20044;-49
2021/03/22 12:19:21;;;;;;;7.50;2.20;;;9.20;71.90;;;;;;5095899;28;20229;-47
2021/03/22 12:21:50;;;;;;;7.00;1.98;;;9.10;70.90;;;;;;5096158;28;20052;-45
2021/03/22 12:24:21;;;;;;;7.40;2.00;;;9.10;71.00;;;;;;5105149;28;20048;-46
2021/03/22 12:26:52;;;;;;;9.88;2.78;;;9.10;70.70;;;;;;5097043;28;20055;-45
2021/03/22 12:29:21;;;;;;;7.82;2.17;;;9.00;69.90;;;;;;5079353;28;20101;-45
2021/03/22 12:31:51;;;;;;;8.77;2.35;;;9.00;70.30;;;;;;5098962;28;20055;-45
2021/03/22 12:34:23;;;;;;;6.85;1.75;;;9.10;71.30;;;;;;5092156;28;20068;-44
2021/03/22 12:36:52;;;;;;;7.75;1.98;;;8.90;68.50;;;;;;5090839;28;20052;-48
2021/03/22 12:39:34;;;;;;;8.68;2.55;;;9.00;70.70;;;;;;5097915;28;20054;-45
2021/03/22 12:42:14;;;;;;;7.60;1.75;;;9.10;70.30;;;;;;5073527;28;20052;-46
2021/03/22 12:44:43;;;;;;;9.23;2.05;;;9.00;68.20;;;;;;5090741;28;20069;-47
2021/03/22 12:47:24;;;;;;;8.50;1.75;;;9.10;68.90;;;;;;5090467;28;20061;-44
2021/03/22 12:49:53;;;;;;;5.72;1.50;;;9.10;69.00;;;;;;5090506;28;20043;-46
2021/03/22 12:52:22;;;;;;;6.28;1.30;;;9.30;68.70;;;;;;5090635;28;20059;-49
2021/03/22 12:54:53;;;;;;;6.28;2.00;;;9.30;69.60;;;;;;5097158;28;20058;-47
2021/03/22 12:57:22;;;;;;;3.97;1.23;;;9.30;69.10;;;;;;5090583;28;20511;-44
2021/03/22 12:59:51;;;;;;;4.45;1.20;;;9.30;68.40;;;;;;5090205;28;20587;-45
2021/03/22 13:02:24;;;;;;;7.65;1.58;;;9.30;67.40;;;;;;5090245;28;20068;-44
2021/03/22 13:04:58;;;;;;;3.58;1.23;;;9.50;68.80;;;;;;5087746;28;20044;-46
2021/03/22 13:07:29;;;;;;;4.63;1.42;;;9.60;68.20;;;;;;5087709;28;20043;-45
2021/03/22 13:09:58;;;;;;;3.92;1.63;;;9.80;67.70;;;;;;5072643;28;20056;-46
2021/03/22 13:12:33;;;;;;;19.60;13.80;;;9.90;67.20;;;;;;5091501;28;20055;-44
2021/03/22 13:15:08;;;;;;;11.65;6.63;;;9.90;64.90;;;;;;5090358;28;20043;-49
2021/03/22 13:17:35;;;;;;;6.55;2.00;;;9.90;64.60;;;;;;5097282;28;20805;-47
2021/03/22 13:20:07;;;;;;;3.85;1.77;;;9.90;66.60;;;;;;5093578;28;20532;-46
2021/03/22 13:22:39;;;;;;;10.30;4.80;;;9.90;65.80;;;;;;5082001;28;20052;-49
2021/03/22 13:25:08;;;;;;;4.35;1.83;;;10.00;66.60;;;;;;5068515;28;20056;-54
2021/03/22 13:27:37;;;;;;;7.47;3.15;;;10.10;65.40;;;;;;5071885;28;20054;-44
2021/03/22 13:30:08;;;;;;;7.85;1.55;;;10.10;65.00;;;;;;5100399;28;20410;-47
2021/03/22 13:32:37;;;;;;;4.03;1.98;;;10.00;63.30;;;;;;5073537;28;20127;-49
2021/03/22 13:35:04;;;;;;;8.05;2.63;;;10.10;64.70;;;;;;5092868;28;20177;-50
2021/03/22 13:37:33;;;;;;;3.78;1.50;;;10.20;64.20;;;;;;5096213;28;20056;-51
2021/03/22 13:39:59;;;;;;;5.72;2.10;;;10.10;63.80;;;;;;5071840;28;20064;-47